createdAt,value
2023-05-17T00:00:04.942Z,48.02
2023-05-17T00:01:04.995Z,48.03
2023-05-17T00:02:04.998Z,48.03
2023-05-17T00:03:05.104Z,48.02
2023-05-17T00:04:05.092Z,48.00
2023-05-17T00:05:05.129Z,48.03
2023-05-17T00:06:05.190Z,47.99
2023-05-17T00:07:05.172Z,48.02
2023-05-17T00:08:05.212Z,47.99
2023-05-17T00:09:05.288Z,47.97
2023-05-17T00:10:05.240Z,47.99
2023-05-17T00:11:05.331Z,48.00
2023-05-17T00:12:05.327Z,48.01
2023-05-17T00:13:05.398Z,48.00
2023-05-17T00:14:05.409Z,47.99
2023-05-17T00:15:05.452Z,47.97
2023-05-17T00:16:05.473Z,47.99
2023-05-17T00:17:05.489Z,47.96
2023-05-17T00:18:05.606Z,47.96
2023-05-17T00:19:05.815Z,47.92
2023-05-17T00:20:05.643Z,47.97
2023-05-17T00:21:05.685Z,47.95
2023-05-17T00:22:05.706Z,47.95
2023-05-17T00:23:05.749Z,47.95
2023-05-17T00:24:05.809Z,47.95
2023-05-17T00:25:05.810Z,47.95
2023-05-17T00:26:05.856Z,47.94
2023-05-17T00:27:05.912Z,47.93
2023-05-17T00:28:05.930Z,47.94
2023-05-17T00:29:05.983Z,47.94
2023-05-17T00:30:06.039Z,47.94
2023-05-17T00:31:06.017Z,47.91
2023-05-17T00:32:06.096Z,47.92
2023-05-17T00:33:06.146Z,47.90
2023-05-17T00:34:06.160Z,47.92
2023-05-17T00:35:06.341Z,47.93
2023-05-17T00:36:06.182Z,47.92
2023-05-17T00:37:06.240Z,47.94
2023-05-17T00:38:06.279Z,47.89
2023-05-17T00:39:06.329Z,47.89
2023-05-17T00:40:06.352Z,47.92
2023-05-17T00:41:06.403Z,47.88
2023-05-17T00:42:06.462Z,47.89
2023-05-17T00:43:06.511Z,47.88
2023-05-17T00:44:06.512Z,47.90
2023-05-17T00:45:06.577Z,47.86
2023-05-17T00:46:06.608Z,47.89
2023-05-17T00:47:06.669Z,47.87
2023-05-17T00:48:06.740Z,47.86
2023-05-17T00:49:06.694Z,47.88
2023-05-17T00:50:06.723Z,47.86
2023-05-17T00:51:06.869Z,47.84
2023-05-17T00:52:06.806Z,47.85
2023-05-17T00:53:06.865Z,47.86
2023-05-17T00:54:06.866Z,47.85
2023-05-17T00:55:06.936Z,47.84
2023-05-17T00:56:06.972Z,47.84
2023-05-17T00:57:07.072Z,47.85
2023-05-17T00:58:07.052Z,47.83
2023-05-17T00:59:07.125Z,47.83
2023-05-17T01:00:07.149Z,47.83
2023-05-17T01:01:07.173Z,47.83
2023-05-17T01:02:07.231Z,47.85
2023-05-17T01:03:07.375Z,47.83
2023-05-17T01:04:07.493Z,47.83
2023-05-17T01:05:07.532Z,47.81
2023-05-17T01:06:07.393Z,47.81
2023-05-17T01:07:07.503Z,47.82
2023-05-17T01:08:07.438Z,47.81
2023-05-17T01:09:07.509Z,47.81
2023-05-17T01:10:07.549Z,47.81
2023-05-17T01:11:07.546Z,47.80
2023-05-17T01:12:07.606Z,47.80
2023-05-17T01:13:07.653Z,47.79
2023-05-17T01:14:07.656Z,47.79
2023-05-17T01:15:07.706Z,47.79
2023-05-17T01:16:07.722Z,47.77
2023-05-17T01:17:07.792Z,47.78
2023-05-17T01:18:07.929Z,47.79
2023-05-17T01:19:08.010Z,47.77
2023-05-17T01:20:08.053Z,47.80
2023-05-17T01:21:07.923Z,47.76
2023-05-17T01:22:07.957Z,47.77
2023-05-17T01:23:08.106Z,47.73
2023-05-17T01:24:08.039Z,47.73
2023-05-17T01:25:08.062Z,47.75
2023-05-17T01:26:08.136Z,47.75
2023-05-17T01:27:08.167Z,47.75
2023-05-17T01:28:08.217Z,47.74
2023-05-17T01:29:08.233Z,47.74
2023-05-17T01:30:08.276Z,47.71
2023-05-17T01:31:08.302Z,47.72
2023-05-17T01:32:08.371Z,47.74
2023-05-17T01:33:08.444Z,47.74
2023-05-17T01:34:08.401Z,47.71
2023-05-17T01:35:08.442Z,47.71
2023-05-17T01:36:08.520Z,47.70
2023-05-17T01:37:08.565Z,47.69
2023-05-17T01:38:08.552Z,47.67
2023-05-17T01:39:08.682Z,47.69
2023-05-17T01:40:08.653Z,47.67
2023-05-17T01:41:08.716Z,47.65
2023-05-17T01:42:08.751Z,47.69
2023-05-17T01:43:08.781Z,47.69
2023-05-17T01:44:08.807Z,47.69
2023-05-17T01:45:08.851Z,47.68
2023-05-17T01:46:08.856Z,47.68
2023-05-17T01:47:08.910Z,47.66
2023-05-17T01:48:09.051Z,47.66
2023-05-17T01:49:09.017Z,47.66
2023-05-17T01:50:09.042Z,47.65
2023-05-17T01:51:09.077Z,47.66
2023-05-17T01:52:09.123Z,47.65
2023-05-17T01:53:09.225Z,47.65
2023-05-17T01:54:09.186Z,47.65
2023-05-17T01:55:09.300Z,47.66
2023-05-17T01:56:09.265Z,47.64
2023-05-17T01:57:09.277Z,47.64
2023-05-17T01:58:09.326Z,47.64
2023-05-17T01:59:09.357Z,47.62
2023-05-17T02:00:09.496Z,47.61
2023-05-17T02:01:09.471Z,47.62
2023-05-17T02:02:09.474Z,47.62
2023-05-17T02:03:09.533Z,47.61
2023-05-17T02:04:09.804Z,47.61
2023-05-17T02:05:09.742Z,47.58
2023-05-17T02:06:09.669Z,47.59
2023-05-17T02:07:09.726Z,47.60
2023-05-17T02:08:09.733Z,47.58
2023-05-17T02:09:09.753Z,47.59
2023-05-17T02:10:09.845Z,47.59
2023-05-17T02:11:09.989Z,47.57
2023-05-17T02:12:09.906Z,47.59
2023-05-17T02:13:09.946Z,47.58
2023-05-17T02:14:10.004Z,47.58
2023-05-17T02:15:10.023Z,47.58
2023-05-17T02:16:10.071Z,47.57
2023-05-17T02:17:10.206Z,47.56
2023-05-17T02:18:10.257Z,47.55
2023-05-17T02:19:10.198Z,47.56
2023-05-17T02:20:10.283Z,47.57
2023-05-17T02:21:10.302Z,47.55
2023-05-17T02:22:10.349Z,47.52
2023-05-17T02:23:10.397Z,47.54
2023-05-17T02:24:10.419Z,47.55
2023-05-17T02:25:10.499Z,47.54
2023-05-17T02:26:10.571Z,47.51
2023-05-17T02:27:10.731Z,47.52
2023-05-17T02:28:10.623Z,47.52
2023-05-17T02:29:10.665Z,47.50
2023-05-17T02:30:10.739Z,47.54
2023-05-17T02:31:10.771Z,47.50
2023-05-17T02:32:10.810Z,47.50
2023-05-17T02:33:10.920Z,47.49
2023-05-17T02:34:10.895Z,47.49
2023-05-17T02:35:10.946Z,47.51
2023-05-17T02:36:10.977Z,47.49
2023-05-17T02:37:11.038Z,47.49
2023-05-17T02:38:11.092Z,47.49
2023-05-17T02:39:11.149Z,47.45
2023-05-17T02:40:11.215Z,47.50
2023-05-17T02:41:11.247Z,47.48
2023-05-17T02:42:11.288Z,47.47
2023-05-17T02:43:11.442Z,47.47
2023-05-17T02:44:11.377Z,47.46
2023-05-17T02:45:11.442Z,47.47
2023-05-17T02:46:11.476Z,47.45
2023-05-17T02:47:11.567Z,47.47
2023-05-17T02:48:11.629Z,47.45
2023-05-17T02:49:11.620Z,47.44
2023-05-17T02:50:11.708Z,47.45
2023-05-17T02:51:11.719Z,47.42
2023-05-17T02:52:11.769Z,47.44
2023-05-17T02:53:11.832Z,47.45
2023-05-17T02:54:11.846Z,47.42
2023-05-17T02:55:11.889Z,47.42
2023-05-17T02:56:11.964Z,47.41
2023-05-17T02:57:11.986Z,47.42
2023-05-17T02:58:12.069Z,47.41
2023-05-17T02:59:12.163Z,47.43
2023-05-17T03:00:12.136Z,47.40
2023-05-17T03:01:12.184Z,47.41
2023-05-17T03:02:12.295Z,47.42
2023-05-17T03:03:12.337Z,47.40
2023-05-17T03:04:12.387Z,47.40
2023-05-17T03:05:12.388Z,47.39
2023-05-17T03:06:12.403Z,47.39
2023-05-17T03:07:12.468Z,47.40
2023-05-17T03:08:12.499Z,47.37
2023-05-17T03:09:12.570Z,47.41
2023-05-17T03:10:12.621Z,47.37
2023-05-17T03:11:12.673Z,47.37
2023-05-17T03:12:12.719Z,47.37
2023-05-17T03:13:13.088Z,47.39
2023-05-17T03:14:12.795Z,47.38
2023-05-17T03:15:12.988Z,47.36
2023-05-17T03:16:12.923Z,47.36
2023-05-17T03:17:12.950Z,47.35
2023-05-17T03:18:13.072Z,47.36
2023-05-17T03:19:13.182Z,47.31
2023-05-17T03:20:13.112Z,47.35
2023-05-17T03:21:13.134Z,47.33
2023-05-17T03:22:13.247Z,47.37
2023-05-17T03:23:13.259Z,47.34
2023-05-17T03:24:13.302Z,47.34
2023-05-17T03:25:13.376Z,47.32
2023-05-17T03:26:13.419Z,47.31
2023-05-17T03:27:13.550Z,47.33
2023-05-17T03:28:13.486Z,47.31
2023-05-17T03:29:13.518Z,47.33
2023-05-17T03:30:13.604Z,47.30
2023-05-17T03:31:13.718Z,47.31
2023-05-17T03:32:13.702Z,47.31
2023-05-17T03:33:13.816Z,47.30
2023-05-17T03:34:13.778Z,47.32
2023-05-17T03:35:13.896Z,47.27
2023-05-17T03:36:13.899Z,47.29
2023-05-17T03:37:13.959Z,47.28
2023-05-17T03:38:14.008Z,47.29
2023-05-17T03:39:14.051Z,47.27
2023-05-17T03:40:14.074Z,47.29
2023-05-17T03:41:14.181Z,47.30
2023-05-17T03:42:14.218Z,47.27
2023-05-17T03:43:14.254Z,47.28
2023-05-17T03:44:14.323Z,47.28
2023-05-17T03:45:14.363Z,47.25
2023-05-17T03:46:14.432Z,47.27
2023-05-17T03:47:14.554Z,47.27
2023-05-17T03:48:14.599Z,47.26
2023-05-17T03:49:14.669Z,47.24
2023-05-17T03:50:14.608Z,47.24
2023-05-17T03:51:14.681Z,47.25
2023-05-17T03:52:14.751Z,47.24
2023-05-17T03:53:14.784Z,47.26
2023-05-17T03:54:14.839Z,47.22
2023-05-17T03:55:14.870Z,47.25
2023-05-17T03:56:14.944Z,47.23
2023-05-17T03:57:14.993Z,47.22
2023-05-17T03:58:15.061Z,47.21
2023-05-17T03:59:15.065Z,47.22
2023-05-17T04:00:15.148Z,47.23
2023-05-17T04:01:15.179Z,47.21
2023-05-17T04:02:15.249Z,47.20
2023-05-17T04:03:16.558Z,47.20
2023-05-17T04:04:15.340Z,47.20
2023-05-17T04:05:15.481Z,47.20
2023-05-17T04:06:15.464Z,47.18
2023-05-17T04:07:15.494Z,47.18
2023-05-17T04:08:15.557Z,47.17
2023-05-17T04:09:15.659Z,47.20
2023-05-17T04:10:15.647Z,47.18
2023-05-17T04:11:15.749Z,47.18
2023-05-17T04:12:15.753Z,47.18
2023-05-17T04:13:15.839Z,47.16
2023-05-17T04:14:15.880Z,47.18
2023-05-17T04:15:15.980Z,47.16
2023-05-17T04:16:15.962Z,47.18
2023-05-17T04:17:16.953Z,47.16
2023-05-17T04:18:16.179Z,47.16
2023-05-17T04:19:16.393Z,47.15
2023-05-17T04:20:16.219Z,47.14
2023-05-17T04:21:16.241Z,47.17
2023-05-17T04:22:16.279Z,47.15
2023-05-17T04:23:16.373Z,47.14
2023-05-17T04:24:16.432Z,47.12
2023-05-17T04:25:16.478Z,47.13
2023-05-17T04:26:16.549Z,47.10
2023-05-17T04:27:16.593Z,47.12
2023-05-17T04:28:16.632Z,47.09
2023-05-17T04:29:16.673Z,47.08
2023-05-17T04:30:16.716Z,47.12
2023-05-17T04:31:16.861Z,47.09
2023-05-17T04:32:16.835Z,47.08
2023-05-17T04:33:16.941Z,47.09
2023-05-17T04:34:17.029Z,47.07
2023-05-17T04:35:17.129Z,47.07
2023-05-17T04:36:17.049Z,47.07
2023-05-17T04:37:17.101Z,47.07
2023-05-17T04:38:17.191Z,47.04
2023-05-17T04:39:17.208Z,47.07
2023-05-17T04:40:17.322Z,47.07
2023-05-17T04:41:17.306Z,47.05
2023-05-17T04:42:17.382Z,47.06
2023-05-17T04:43:17.435Z,47.06
2023-05-17T04:44:17.488Z,47.04
2023-05-17T04:45:17.581Z,47.06
2023-05-17T04:46:17.584Z,47.03
2023-05-17T04:47:17.704Z,47.03
2023-05-17T04:48:17.779Z,47.01
2023-05-17T04:49:17.781Z,47.03
2023-05-17T04:50:17.816Z,46.99
2023-05-17T04:51:17.931Z,47.01
2023-05-17T04:52:17.913Z,46.99
2023-05-17T04:53:17.964Z,46.98
2023-05-17T04:54:18.033Z,46.99
2023-05-17T04:55:18.078Z,47.01
2023-05-17T04:56:18.104Z,46.97
2023-05-17T04:57:18.192Z,46.95
2023-05-17T04:58:18.247Z,46.94
2023-05-17T04:59:18.273Z,46.94
2023-05-17T05:00:18.327Z,46.91
2023-05-17T05:01:18.414Z,46.94
2023-05-17T05:02:18.427Z,46.95
2023-05-17T05:03:18.522Z,46.92
2023-05-17T05:04:18.674Z,46.93
2023-05-17T05:05:18.610Z,46.92
2023-05-17T05:06:18.668Z,46.92
2023-05-17T05:07:18.834Z,46.90
2023-05-17T05:08:18.776Z,46.92
2023-05-17T05:09:18.832Z,46.89
2023-05-17T05:10:18.902Z,46.88
2023-05-17T05:11:18.923Z,46.87
2023-05-17T05:12:18.974Z,46.88
2023-05-17T05:13:19.026Z,46.88
2023-05-17T05:14:19.072Z,46.86
2023-05-17T05:15:19.119Z,46.88
2023-05-17T05:16:19.166Z,46.85
2023-05-17T05:17:19.338Z,46.84
2023-05-17T05:18:19.386Z,46.86
2023-05-17T05:19:19.676Z,46.86
2023-05-17T05:20:19.408Z,46.84
2023-05-17T05:21:19.418Z,46.85
2023-05-17T05:22:19.494Z,46.84
2023-05-17T05:23:19.692Z,46.82
2023-05-17T05:24:19.608Z,46.85
2023-05-17T05:25:19.623Z,46.81
2023-05-17T05:26:19.707Z,46.84
2023-05-17T05:27:19.736Z,46.83
2023-05-17T05:28:19.778Z,46.81
2023-05-17T05:29:19.870Z,46.83
2023-05-17T05:30:19.872Z,46.83
2023-05-17T05:31:19.965Z,46.80
2023-05-17T05:32:19.993Z,46.80
2023-05-17T05:33:20.118Z,46.80
2023-05-17T05:34:20.086Z,46.81
2023-05-17T05:35:20.139Z,46.79
2023-05-17T05:36:20.205Z,46.80
2023-05-17T05:37:20.266Z,46.77
2023-05-17T05:38:20.333Z,46.77
2023-05-17T05:39:20.513Z,46.78
2023-05-17T05:40:20.422Z,46.77
2023-05-17T05:41:20.482Z,46.79
2023-05-17T05:42:20.543Z,46.76
2023-05-17T05:43:20.575Z,46.75
2023-05-17T05:44:20.627Z,46.77
2023-05-17T05:45:20.671Z,46.77
2023-05-17T05:46:20.729Z,46.76
2023-05-17T05:47:20.778Z,46.76
2023-05-17T05:48:20.954Z,46.74
2023-05-17T05:49:20.917Z,46.75
2023-05-17T05:50:20.952Z,46.74
2023-05-17T05:51:22.690Z,46.73
2023-05-17T05:52:21.037Z,46.72
2023-05-17T05:53:21.114Z,46.70
2023-05-17T05:54:21.158Z,46.73
2023-05-17T05:55:21.274Z,46.73
2023-05-17T05:56:21.259Z,46.74
2023-05-17T05:57:21.304Z,46.72
2023-05-17T05:58:21.373Z,46.69
2023-05-17T05:59:21.385Z,46.69
2023-05-17T06:00:21.437Z,46.68
2023-05-17T06:01:21.515Z,46.71
2023-05-17T06:02:21.647Z,46.67
2023-05-17T06:03:21.612Z,46.71
2023-05-17T06:04:29.760Z,46.67
2023-05-17T06:05:22.733Z,46.68
2023-05-17T06:06:21.690Z,46.68
2023-05-17T06:07:21.639Z,46.66
2023-05-17T06:08:21.638Z,46.66
2023-05-17T06:09:21.626Z,46.65
2023-05-17T06:10:21.617Z,46.63
2023-05-17T06:11:21.686Z,46.67
2023-05-17T06:12:21.601Z,46.64
2023-05-17T06:13:21.589Z,46.66
2023-05-17T06:14:21.599Z,46.65
2023-05-17T06:15:21.625Z,46.65
2023-05-17T06:16:21.713Z,46.67
2023-05-17T06:17:21.791Z,46.64
2023-05-17T06:18:21.833Z,46.64
2023-05-17T06:19:21.897Z,46.63
2023-05-17T06:20:21.893Z,46.62
2023-05-17T06:21:21.948Z,46.63
2023-05-17T06:22:21.994Z,46.63
2023-05-17T06:23:22.040Z,46.65
2023-05-17T06:24:22.085Z,46.63
2023-05-17T06:25:22.116Z,46.64
2023-05-17T06:26:22.172Z,46.62
2023-05-17T06:27:22.287Z,46.62
2023-05-17T06:28:22.261Z,46.61
2023-05-17T06:29:22.317Z,46.60
2023-05-17T06:30:22.347Z,46.60
2023-05-17T06:31:22.441Z,46.61
2023-05-17T06:32:22.480Z,46.57
2023-05-17T06:33:22.582Z,46.59
2023-05-17T06:34:22.567Z,46.57
2023-05-17T06:35:22.624Z,46.58
2023-05-17T06:36:22.664Z,46.60
2023-05-17T06:37:22.732Z,46.61
2023-05-17T06:38:22.825Z,46.59
2023-05-17T06:39:22.830Z,46.60
2023-05-17T06:40:22.881Z,46.60
2023-05-17T06:41:22.944Z,46.59
2023-05-17T06:42:23.010Z,46.56
2023-05-17T06:43:23.122Z,46.58
2023-05-17T06:44:23.093Z,46.58
2023-05-17T06:45:23.151Z,46.61
2023-05-17T06:46:23.188Z,46.55
2023-05-17T06:47:23.287Z,46.55
2023-05-17T06:48:23.536Z,46.53
2023-05-17T06:49:23.359Z,46.54
2023-05-17T06:50:23.399Z,46.53
2023-05-17T06:51:23.480Z,46.54
2023-05-17T06:52:23.511Z,46.52
2023-05-17T06:53:23.568Z,46.53
2023-05-17T06:54:23.617Z,46.82
2023-05-17T06:55:23.668Z,46.46
2023-05-17T06:56:23.747Z,46.43
2023-05-17T06:57:23.779Z,46.31
2023-05-17T06:58:24.635Z,46.30
2023-05-17T06:59:24.080Z,46.24
2023-05-17T07:00:23.955Z,46.12
2023-05-17T07:01:23.992Z,46.15
2023-05-17T07:02:24.060Z,46.05
2023-05-17T07:03:24.159Z,45.94
2023-05-17T07:04:24.309Z,45.90
2023-05-17T07:05:24.281Z,45.94
2023-05-17T07:06:24.251Z,45.86
2023-05-17T07:07:24.282Z,45.81
2023-05-17T07:08:24.352Z,45.77
2023-05-17T07:09:24.367Z,45.71
2023-05-17T07:10:24.418Z,45.81
2023-05-17T07:11:24.454Z,45.78
2023-05-17T07:12:24.540Z,45.71
2023-05-17T07:13:25.185Z,45.78
2023-05-17T07:14:24.652Z,45.79
2023-05-17T07:15:24.789Z,45.83
2023-05-17T07:16:24.767Z,45.83
2023-05-17T07:17:24.754Z,45.81
2023-05-17T07:18:25.021Z,45.71
2023-05-17T07:19:24.933Z,45.67
2023-05-17T07:20:24.912Z,45.67
2023-05-17T07:21:24.936Z,45.58
2023-05-17T07:22:25.026Z,45.52
2023-05-17T07:23:25.168Z,45.54
2023-05-17T07:24:25.116Z,45.40
2023-05-17T07:25:25.144Z,45.34
2023-05-17T07:26:25.176Z,45.25
2023-05-17T07:27:25.413Z,44.57
2023-05-17T07:28:25.295Z,44.26
2023-05-17T07:29:25.357Z,44.12
2023-05-17T07:30:25.400Z,44.10
2023-05-17T07:31:25.527Z,43.87
2023-05-17T07:32:25.568Z,44.06
2023-05-17T07:33:25.586Z,44.22
2023-05-17T07:34:25.674Z,44.77
2023-05-17T07:35:25.702Z,44.87
2023-05-17T07:36:25.783Z,45.16
2023-05-17T07:37:25.894Z,45.17
2023-05-17T07:38:25.891Z,45.20
2023-05-17T07:39:25.934Z,45.45
2023-05-17T07:40:25.987Z,45.47
2023-05-17T07:41:26.037Z,47.52
2023-05-17T07:42:26.124Z,46.80
2023-05-17T07:43:26.145Z,47.19
2023-05-17T07:44:26.183Z,47.92
2023-05-17T07:45:26.250Z,47.61
2023-05-17T07:46:26.304Z,47.73
2023-05-17T07:47:26.467Z,47.38
2023-05-17T07:48:26.353Z,46.91
2023-05-17T07:49:26.393Z,47.09
2023-05-17T07:50:26.385Z,47.25
2023-05-17T07:51:26.447Z,47.40
2023-05-17T07:52:26.395Z,46.64
2023-05-17T07:53:26.423Z,46.68
2023-05-17T07:54:26.471Z,46.83
2023-05-17T07:55:26.654Z,46.60
2023-05-17T07:56:26.521Z,46.73
2023-05-17T07:57:26.545Z,46.72
2023-05-17T07:58:26.584Z,46.96
2023-05-17T07:59:26.629Z,46.64
2023-05-17T08:00:26.648Z,46.46
2023-05-17T08:01:26.670Z,46.35
2023-05-17T08:02:26.714Z,46.35
2023-05-17T08:03:26.863Z,46.76
2023-05-17T08:04:26.854Z,46.66
2023-05-17T08:05:27.022Z,46.81
2023-05-17T08:06:26.936Z,47.02
2023-05-17T08:07:26.889Z,47.25
2023-05-17T08:08:26.944Z,47.47
2023-05-17T08:09:26.960Z,46.99
2023-05-17T08:10:26.988Z,46.91
2023-05-17T08:11:27.053Z,47.63
2023-05-17T08:12:27.067Z,47.60
2023-05-17T08:13:27.127Z,47.59
2023-05-17T08:14:27.175Z,47.37
2023-05-17T08:15:27.601Z,47.48
2023-05-17T08:16:27.278Z,47.50
2023-05-17T08:17:27.379Z,47.33
2023-05-17T08:18:27.387Z,47.23
2023-05-17T08:19:27.601Z,47.24
2023-05-17T08:20:27.470Z,47.01
2023-05-17T08:21:27.487Z,47.41
2023-05-17T08:22:27.536Z,47.18
2023-05-17T08:23:27.596Z,47.08
2023-05-17T08:24:27.666Z,47.09
2023-05-17T08:25:27.768Z,47.15
2023-05-17T08:26:27.744Z,47.09
2023-05-17T08:27:27.755Z,47.08
2023-05-17T08:28:27.823Z,47.06
2023-05-17T08:29:27.846Z,47.09
2023-05-17T08:30:29.394Z,46.91
2023-05-17T08:31:27.916Z,47.36
2023-05-17T08:32:27.994Z,47.03
2023-05-17T08:33:28.871Z,47.03
2023-05-17T08:34:28.089Z,47.28
2023-05-17T08:35:29.170Z,47.30
2023-05-17T08:36:28.159Z,47.18
2023-05-17T08:37:28.222Z,47.50
2023-05-17T08:38:28.244Z,46.90
2023-05-17T08:39:28.320Z,47.26
2023-05-17T08:40:28.572Z,47.11
2023-05-17T08:41:28.382Z,46.91
2023-05-17T08:42:28.396Z,47.33
2023-05-17T08:43:28.453Z,47.34
2023-05-17T08:44:28.518Z,47.78
2023-05-17T08:45:28.624Z,48.09
2023-05-17T08:46:28.543Z,48.19
2023-05-17T08:47:28.582Z,48.82
2023-05-17T08:48:28.627Z,48.21
2023-05-17T08:49:28.581Z,48.86
2023-05-17T08:50:28.942Z,48.55
2023-05-17T08:51:28.643Z,49.04
2023-05-17T08:52:28.590Z,47.74
2023-05-17T08:53:28.643Z,46.70
2023-05-17T08:54:28.673Z,45.90
2023-05-17T08:55:28.670Z,44.54
2023-05-17T08:56:28.688Z,44.80
2023-05-17T08:57:28.676Z,45.06
2023-05-17T08:58:28.709Z,44.74
2023-05-17T08:59:28.687Z,44.82
2023-05-17T09:00:28.847Z,45.06
2023-05-17T09:01:30.633Z,45.34
2023-05-17T09:02:28.877Z,45.37
2023-05-17T09:03:28.811Z,45.24
2023-05-17T09:04:28.777Z,44.62
2023-05-17T09:05:28.815Z,44.44
2023-05-17T09:06:28.713Z,44.40
2023-05-17T09:07:28.740Z,44.60
2023-05-17T09:08:28.727Z,44.89
2023-05-17T09:09:28.724Z,44.94
2023-05-17T09:10:28.808Z,44.81
2023-05-17T09:11:28.775Z,44.51
2023-05-17T09:12:28.668Z,44.57
2023-05-17T09:13:28.694Z,44.44
2023-05-17T09:14:28.664Z,44.51
2023-05-17T09:15:28.645Z,44.35
2023-05-17T09:16:28.683Z,44.44
2023-05-17T09:17:28.684Z,44.73
2023-05-17T09:18:28.787Z,45.03
2023-05-17T09:19:28.683Z,45.41
2023-05-17T09:20:28.801Z,45.59
2023-05-17T09:21:29.626Z,45.62
2023-05-17T09:22:28.594Z,45.67
2023-05-17T09:23:28.593Z,45.73
2023-05-17T09:24:28.611Z,45.86
2023-05-17T09:25:28.596Z,45.78
2023-05-17T09:26:28.585Z,45.89
2023-05-17T09:27:28.609Z,45.98
2023-05-17T09:28:28.573Z,46.04
2023-05-17T09:29:28.595Z,46.08
2023-05-17T09:30:28.795Z,46.10
2023-05-17T09:31:28.552Z,46.10
2023-05-17T09:32:28.648Z,46.21
2023-05-17T09:33:28.546Z,46.21
2023-05-17T09:34:28.530Z,46.27
2023-05-17T09:35:28.791Z,46.36
2023-05-17T09:36:28.539Z,46.42
2023-05-17T09:37:28.531Z,46.47
2023-05-17T09:38:28.533Z,46.48
2023-05-17T09:39:28.523Z,46.49
2023-05-17T09:40:28.489Z,46.53
2023-05-17T09:41:28.480Z,46.59
2023-05-17T09:42:28.496Z,46.93
2023-05-17T09:43:28.509Z,46.87
2023-05-17T09:44:28.595Z,47.12
2023-05-17T09:45:28.770Z,47.20
2023-05-17T09:46:28.685Z,47.25
2023-05-17T09:47:28.963Z,47.21
2023-05-17T09:48:28.896Z,47.84
2023-05-17T09:49:28.820Z,47.48
2023-05-17T09:50:28.865Z,47.68
2023-05-17T09:51:28.877Z,48.02
2023-05-17T09:52:28.905Z,47.81
2023-05-17T09:53:28.964Z,47.78
2023-05-17T09:54:28.953Z,47.80
2023-05-17T09:55:29.422Z,47.99
2023-05-17T09:56:29.005Z,47.89
2023-05-17T09:57:29.066Z,48.00
2023-05-17T09:58:29.181Z,48.25
2023-05-17T09:59:29.134Z,48.27
2023-05-17T10:00:29.131Z,48.30
2023-05-17T10:01:29.185Z,48.23
2023-05-17T10:02:29.214Z,48.60
2023-05-17T10:03:29.288Z,48.46
2023-05-17T10:04:29.232Z,48.59
2023-05-17T10:05:29.578Z,48.66
2023-05-17T10:06:44.547Z,51.12
2023-05-17T10:07:30.244Z,50.44
2023-05-17T10:08:29.276Z,49.13
2023-05-17T10:09:29.225Z,49.17
2023-05-17T10:10:29.247Z,49.25
2023-05-17T10:11:29.363Z,49.49
2023-05-17T10:12:29.212Z,49.56
2023-05-17T10:13:29.230Z,49.97
2023-05-17T10:14:29.265Z,49.85
2023-05-17T10:15:29.567Z,51.28
2023-05-17T10:16:29.185Z,49.62
2023-05-17T10:17:29.256Z,49.17
2023-05-17T10:18:29.328Z,49.18
2023-05-17T10:19:29.328Z,49.53
2023-05-17T10:20:29.163Z,51.20
2023-05-17T10:21:30.790Z,50.05
2023-05-17T10:22:29.197Z,49.36
2023-05-17T10:23:29.149Z,49.87
2023-05-17T10:24:29.118Z,50.49
2023-05-17T10:25:29.330Z,51.52
2023-05-17T10:26:29.238Z,51.46
2023-05-17T10:27:29.311Z,49.92
2023-05-17T10:28:29.349Z,49.96
2023-05-17T10:29:29.388Z,49.84
2023-05-17T10:30:29.473Z,50.28
2023-05-17T10:31:29.552Z,50.72
2023-05-17T10:32:29.619Z,50.40
2023-05-17T10:33:29.773Z,50.06
2023-05-17T10:34:29.692Z,50.02
2023-05-17T10:35:30.015Z,49.65
2023-05-17T10:36:29.809Z,49.27
2023-05-17T10:37:29.823Z,49.32
2023-05-17T10:38:41.653Z,49.25
2023-05-17T10:39:30.877Z,49.20
2023-05-17T10:40:29.891Z,49.57
2023-05-17T10:41:29.905Z,49.72
2023-05-17T10:42:29.871Z,50.34
2023-05-17T10:43:29.857Z,50.19
2023-05-17T10:44:29.848Z,50.12
2023-05-17T10:45:30.138Z,50.20
2023-05-17T10:46:29.830Z,50.43
2023-05-17T10:47:29.882Z,50.31
2023-05-17T10:48:29.903Z,50.26
2023-05-17T10:49:29.886Z,50.38
2023-05-17T10:50:30.167Z,50.48
2023-05-17T10:51:29.907Z,50.68
2023-05-17T10:52:29.946Z,50.63
2023-05-17T10:53:30.041Z,50.66
2023-05-17T10:54:30.051Z,50.83
2023-05-17T10:55:30.248Z,50.85
2023-05-17T10:56:30.121Z,51.05
2023-05-17T10:57:33.321Z,51.02
2023-05-17T10:58:31.147Z,51.36
2023-05-17T10:59:30.235Z,51.29
2023-05-17T11:00:30.401Z,51.19
2023-05-17T11:01:30.100Z,51.06
2023-05-17T11:02:30.150Z,51.16
2023-05-17T11:03:30.164Z,51.14
2023-05-17T11:04:30.098Z,51.10
2023-05-17T11:05:30.242Z,51.21
2023-05-17T11:06:30.169Z,51.27
2023-05-17T11:07:30.085Z,51.39
2023-05-17T11:08:30.100Z,51.38
2023-05-17T11:09:30.065Z,51.42
2023-05-17T11:10:30.225Z,51.39
2023-05-17T11:11:30.075Z,51.56
2023-05-17T11:12:31.317Z,51.66
2023-05-17T11:13:30.099Z,50.82
2023-05-17T11:14:31.159Z,51.32
2023-05-17T11:15:30.667Z,50.96
2023-05-17T11:16:30.039Z,50.88
2023-05-17T11:17:30.084Z,50.60
2023-05-17T11:18:32.500Z,50.65
2023-05-17T11:19:30.144Z,49.25
2023-05-17T11:20:30.326Z,49.48
2023-05-17T11:21:30.041Z,48.87
2023-05-17T11:22:30.769Z,48.99
2023-05-17T11:23:30.030Z,49.42
2023-05-17T11:24:30.014Z,47.31
2023-05-17T11:25:30.000Z,45.88
2023-05-17T11:26:29.972Z,46.21
2023-05-17T11:27:29.977Z,45.33
2023-05-17T11:28:29.981Z,45.28
2023-05-17T11:29:29.949Z,45.25
2023-05-17T11:30:30.203Z,45.45
2023-05-17T11:31:29.951Z,45.06
2023-05-17T11:32:29.963Z,45.20
2023-05-17T11:33:33.876Z,45.16
2023-05-17T11:34:30.032Z,45.04
2023-05-17T11:35:29.949Z,45.00
2023-05-17T11:36:29.937Z,44.56
2023-05-17T11:37:29.925Z,44.51
2023-05-17T11:38:29.897Z,43.96
2023-05-17T11:39:29.896Z,43.79
2023-05-17T11:40:30.032Z,43.04
2023-05-17T11:41:29.891Z,43.16
2023-05-17T11:42:29.870Z,43.08
2023-05-17T11:43:29.855Z,42.88
2023-05-17T11:44:29.848Z,42.78
2023-05-17T11:45:30.029Z,42.80
2023-05-17T11:46:29.930Z,42.73
2023-05-17T11:47:29.964Z,42.55
2023-05-17T11:48:29.950Z,42.11
2023-05-17T11:49:35.705Z,41.99
2023-05-17T11:50:31.098Z,41.81
2023-05-17T11:51:29.800Z,41.61
2023-05-17T11:52:29.795Z,41.73
2023-05-17T11:53:29.799Z,41.24
2023-05-17T11:54:29.772Z,40.88
2023-05-17T11:55:30.050Z,40.67
2023-05-17T11:56:42.302Z,40.68
2023-05-17T11:57:30.906Z,40.49
2023-05-17T11:58:29.879Z,40.45
2023-05-17T11:59:29.881Z,40.14
2023-05-17T12:00:30.055Z,40.09
2023-05-17T12:01:29.770Z,40.10
2023-05-17T12:02:29.813Z,40.04
2023-05-17T12:03:29.730Z,39.77
2023-05-17T12:04:31.281Z,39.42
2023-05-17T12:05:29.696Z,39.35
2023-05-17T12:06:29.696Z,39.11
2023-05-17T12:07:29.745Z,38.96
2023-05-17T12:08:29.691Z,38.92
2023-05-17T12:09:29.665Z,38.92
2023-05-17T12:10:31.464Z,38.72
2023-05-17T12:11:29.645Z,38.61
2023-05-17T12:12:29.662Z,38.57
2023-05-17T12:14:48.566Z,38.79
2023-05-17T12:15:48.558Z,38.68
2023-05-17T12:16:48.545Z,38.67
2023-05-17T12:17:51.469Z,38.68
2023-05-17T12:18:48.741Z,38.78
2023-05-17T12:19:48.761Z,38.86
2023-05-17T12:20:48.520Z,38.96
2023-05-17T12:21:48.499Z,38.89
2023-05-17T12:22:48.523Z,38.71
2023-05-17T12:23:50.891Z,38.75
2023-05-17T12:24:48.670Z,38.75
2023-05-17T12:25:48.647Z,38.70
2023-05-17T12:26:48.679Z,38.62
2023-05-17T12:27:48.710Z,38.51
2023-05-17T12:28:48.772Z,38.46
2023-05-17T12:29:48.788Z,38.61
2023-05-17T12:30:48.851Z,38.73
2023-05-17T12:31:48.895Z,38.64
2023-05-17T12:32:48.981Z,38.54
2023-05-17T12:33:49.143Z,38.40
2023-05-17T12:34:49.096Z,38.32
2023-05-17T12:35:49.129Z,38.22
2023-05-17T12:36:49.185Z,38.25
2023-05-17T12:37:49.239Z,38.29
2023-05-17T12:38:49.307Z,38.26
2023-05-17T12:39:49.340Z,38.21
2023-05-17T12:40:49.383Z,38.10
2023-05-17T12:41:49.443Z,37.90
2023-05-17T12:42:49.494Z,37.88
2023-05-17T12:43:50.436Z,38.00
2023-05-17T12:44:49.620Z,37.96
2023-05-17T12:45:49.691Z,37.86
2023-05-17T12:46:49.742Z,37.89
2023-05-17T12:47:49.793Z,38.01
2023-05-17T12:48:49.908Z,38.16
2023-05-17T12:49:49.895Z,38.06
2023-05-17T12:50:49.951Z,38.00
2023-05-17T12:51:50.009Z,37.86
2023-05-17T12:52:50.074Z,37.96
2023-05-17T12:53:50.115Z,37.91